sensor_id;sensor_type;location;lat;lon;timestamp;P1;durP1;ratioP1;P2;durP2;ratioP2
34920;SDS011;21128;50.016;20.002;2023-02-28T00:01:21;23.05;;;12.80;;
34920;SDS011;21128;50.016;20.002;2023-02-28T00:03:49;25.13;;;13.27;;
34920;SDS011;21128;50.016;20.002;2023-02-28T00:06:16;27.42;;;13.43;;
34920;SDS011;21128;50.016;20.002;2023-02-28T00:08:43;29.70;;;13.50;;
34920;SDS011;21128;50.016;20.002;2023-02-28T00:11:11;26.67;;;13.17;;
34920;SDS011;21128;50.016;20.002;2023-02-28T00:13:41;25.90;;;12.50;;
34920;SDS011;21128;50.016;20.002;2023-02-28T00:16:11;25.87;;;13.37;;
34920;SDS011;21128;50.016;20.002;2023-02-28T00:18:40;29.95;;;13.60;;
34920;SDS011;21128;50.016;20.002;2023-02-28T00:21:08;24.93;;;12.60;;
34920;SDS011;21128;50.016;20.002;2023-02-28T00:23:35;27.63;;;12.13;;
34920;SDS011;21128;50.016;20.002;2023-02-28T00:26:03;26.70;;;13.30;;
34920;SDS011;21128;50.016;20.002;2023-02-28T00:28:30;25.30;;;13.27;;
34920;SDS011;21128;50.016;20.002;2023-02-28T00:30:58;30.43;;;13.47;;
34920;SDS011;21128;50.016;20.002;2023-02-28T00:33:27;24.70;;;13.07;;
34920;SDS011;21128;50.016;20.002;2023-02-28T00:36:01;27.27;;;13.30;;
34920;SDS011;21128;50.016;20.002;2023-02-28T00:38:33;26.95;;;13.45;;
34920;SDS011;21128;50.016;20.002;2023-02-28T00:41:00;28.40;;;14.40;;
34920;SDS011;21128;50.016;20.002;2023-02-28T00:43:34;29.47;;;13.90;;
34920;SDS011;21128;50.016;20.002;2023-02-28T00:46:05;30.70;;;14.87;;
34920;SDS011;21128;50.016;20.002;2023-02-28T00:48:33;27.80;;;14.33;;
34920;SDS011;21128;50.016;20.002;2023-02-28T00:51:03;24.70;;;13.33;;
34920;SDS011;21128;50.016;20.002;2023-02-28T00:53:30;26.90;;;13.07;;
34920;SDS011;21128;50.016;20.002;2023-02-28T00:55:59;25.43;;;13.37;;
34920;SDS011;21128;50.016;20.002;2023-02-28T00:58:26;34.07;;;15.00;;
34920;SDS011;21128;50.016;20.002;2023-02-28T01:00:54;28.67;;;13.83;;
34920;SDS011;21128;50.016;20.002;2023-02-28T01:03:22;32.15;;;13.30;;
34920;SDS011;21128;50.016;20.002;2023-02-28T01:05:52;27.37;;;13.13;;
34920;SDS011;21128;50.016;20.002;2023-02-28T01:08:22;26.80;;;13.50;;
34920;SDS011;21128;50.016;20.002;2023-02-28T01:10:49;26.17;;;13.07;;
34920;SDS011;21128;50.016;20.002;2023-02-28T01:13:16;28.32;;;13.15;;
34920;SDS011;21128;50.016;20.002;2023-02-28T01:15:45;24.07;;;13.37;;
34920;SDS011;21128;50.016;20.002;2023-02-28T01:18:17;25.45;;;13.45;;
34920;SDS011;21128;50.016;20.002;2023-02-28T01:20:45;28.77;;;15.43;;
34920;SDS011;21128;50.016;20.002;2023-02-28T01:23:12;28.70;;;15.00;;
34920;SDS011;21128;50.016;20.002;2023-02-28T01:25:39;33.15;;;15.10;;
34920;SDS011;21128;50.016;20.002;2023-02-28T01:28:07;24.50;;;12.93;;
34920;SDS011;21128;50.016;20.002;2023-02-28T01:30:34;22.67;;;13.10;;
34920;SDS011;21128;50.016;20.002;2023-02-28T01:33:01;33.50;;;14.60;;
34920;SDS011;21128;50.016;20.002;2023-02-28T01:35:28;27.63;;;13.50;;
34920;SDS011;21128;50.016;20.002;2023-02-28T01:38:00;28.97;;;14.67;;
34920;SDS011;21128;50.016;20.002;2023-02-28T01:40:27;28.55;;;13.80;;
34920;SDS011;21128;50.016;20.002;2023-02-28T01:42:57;28.53;;;14.03;;
34920;SDS011;21128;50.016;20.002;2023-02-28T01:45:30;25.47;;;13.67;;
34920;SDS011;21128;50.016;20.002;2023-02-28T01:48:00;26.10;;;13.93;;
34920;SDS011;21128;50.016;20.002;2023-02-28T01:50:31;25.83;;;14.07;;
34920;SDS011;21128;50.016;20.002;2023-02-28T01:53:04;30.40;;;14.17;;
34920;SDS011;21128;50.016;20.002;2023-02-28T01:55:36;30.30;;;14.90;;
34920;SDS011;21128;50.016;20.002;2023-02-28T01:58:07;33.93;;;14.40;;
34920;SDS011;21128;50.016;20.002;2023-02-28T02:00:35;28.70;;;14.77;;
34920;SDS011;21128;50.016;20.002;2023-02-28T02:03:07;33.27;;;15.23;;
34920;SDS011;21128;50.016;20.002;2023-02-28T02:05:38;27.97;;;14.93;;
34920;SDS011;21128;50.016;20.002;2023-02-28T02:08:07;27.40;;;15.30;;
34920;SDS011;21128;50.016;20.002;2023-02-28T02:27:08;27.50;;;14.00;;
34920;SDS011;21128;50.016;20.002;2023-02-28T02:38:06;32.20;;;14.47;;
34920;SDS011;21128;50.016;20.002;2023-02-28T02:43:29;30.70;;;15.05;;
34920;SDS011;21128;50.016;20.002;2023-02-28T02:46:06;31.40;;;15.73;;
34920;SDS011;21128;50.016;20.002;2023-02-28T02:48:41;33.65;;;16.45;;
34920;SDS011;21128;50.016;20.002;2023-02-28T02:51:12;33.40;;;15.50;;
34920;SDS011;21128;50.016;20.002;2023-02-28T02:53:49;25.83;;;14.80;;
34920;SDS011;21128;50.016;20.002;2023-02-28T02:56:23;28.73;;;16.43;;
34920;SDS011;21128;50.016;20.002;2023-02-28T03:01:23;30.73;;;16.20;;
34920;SDS011;21128;50.016;20.002;2023-02-28T03:04:07;33.03;;;16.27;;
34920;SDS011;21128;50.016;20.002;2023-02-28T03:06:38;33.27;;;15.60;;
34920;SDS011;21128;50.016;20.002;2023-02-28T03:09:08;34.13;;;15.70;;
34920;SDS011;21128;50.016;20.002;2023-02-28T03:11:35;33.73;;;16.42;;
34920;SDS011;21128;50.016;20.002;2023-02-28T03:16:45;30.27;;;17.00;;
34920;SDS011;21128;50.016;20.002;2023-02-28T03:27:18;33.17;;;16.30;;
34920;SDS011;21128;50.016;20.002;2023-02-28T03:32:59;34.10;;;16.53;;
34920;SDS011;21128;50.016;20.002;2023-02-28T03:35:38;35.90;;;17.30;;
34920;SDS011;21128;50.016;20.002;2023-02-28T03:40:51;29.23;;;15.77;;
34920;SDS011;21128;50.016;20.002;2023-02-28T03:43:33;30.90;;;15.67;;
34920;SDS011;21128;50.016;20.002;2023-02-28T03:46:05;29.55;;;16.35;;
34920;SDS011;21128;50.016;20.002;2023-02-28T03:48:47;37.50;;;17.32;;
34920;SDS011;21128;50.016;20.002;2023-02-28T03:51:21;34.77;;;16.57;;
34920;SDS011;21128;50.016;20.002;2023-02-28T03:53:52;33.90;;;16.13;;
34920;SDS011;21128;50.016;20.002;2023-02-28T03:56:24;32.78;;;17.60;;
34920;SDS011;21128;50.016;20.002;2023-02-28T03:59:12;30.90;;;16.03;;
34920;SDS011;21128;50.016;20.002;2023-02-28T04:01:47;36.43;;;16.70;;
34920;SDS011;21128;50.016;20.002;2023-02-28T04:04:15;37.20;;;19.27;;
34920;SDS011;21128;50.016;20.002;2023-02-28T04:06:44;33.63;;;17.37;;
34920;SDS011;21128;50.016;20.002;2023-02-28T04:09:12;32.63;;;17.30;;
34920;SDS011;21128;50.016;20.002;2023-02-28T04:11:44;33.35;;;16.95;;
34920;SDS011;21128;50.016;20.002;2023-02-28T04:14:16;34.60;;;16.97;;
34920;SDS011;21128;50.016;20.002;2023-02-28T04:16:43;40.65;;;18.27;;
34920;SDS011;21128;50.016;20.002;2023-02-28T04:19:10;36.93;;;17.27;;
34920;SDS011;21128;50.016;20.002;2023-02-28T04:21:40;33.17;;;18.13;;
34920;SDS011;21128;50.016;20.002;2023-02-28T04:24:10;35.00;;;18.07;;
34920;SDS011;21128;50.016;20.002;2023-02-28T04:26:41;33.57;;;18.57;;
34920;SDS011;21128;50.016;20.002;2023-02-28T04:29:12;37.07;;;19.00;;
34920;SDS011;21128;50.016;20.002;2023-02-28T04:31:40;36.83;;;18.50;;
34920;SDS011;21128;50.016;20.002;2023-02-28T04:34:07;33.97;;;17.80;;
34920;SDS011;21128;50.016;20.002;2023-02-28T04:36:34;40.50;;;20.07;;
34920;SDS011;21128;50.016;20.002;2023-02-28T04:39:01;38.13;;;19.00;;
34920;SDS011;21128;50.016;20.002;2023-02-28T04:41:30;36.13;;;18.60;;
34920;SDS011;21128;50.016;20.002;2023-02-28T04:43:57;36.15;;;18.40;;
34920;SDS011;21128;50.016;20.002;2023-02-28T04:46:24;34.20;;;18.65;;
34920;SDS011;21128;50.016;20.002;2023-02-28T04:48:51;39.87;;;20.13;;
34920;SDS011;21128;50.016;20.002;2023-02-28T04:51:18;35.52;;;19.40;;
34920;SDS011;21128;50.016;20.002;2023-02-28T04:53:46;35.97;;;18.83;;
34920;SDS011;21128;50.016;20.002;2023-02-28T04:56:14;36.97;;;19.93;;
34920;SDS011;21128;50.016;20.002;2023-02-28T04:58:42;35.33;;;17.93;;
34920;SDS011;21128;50.016;20.002;2023-02-28T05:01:29;35.40;;;18.47;;
34920;SDS011;21128;50.016;20.002;2023-02-28T05:03:59;38.37;;;18.57;;
34920;SDS011;21128;50.016;20.002;2023-02-28T05:06:28;35.63;;;18.03;;
34920;SDS011;21128;50.016;20.002;2023-02-28T05:08:57;37.13;;;18.50;;
34920;SDS011;21128;50.016;20.002;2023-02-28T05:11:26;31.67;;;17.43;;
34920;SDS011;21128;50.016;20.002;2023-02-28T05:14:01;36.17;;;17.83;;
34920;SDS011;21128;50.016;20.002;2023-02-28T05:16:32;32.93;;;16.87;;
34920;SDS011;21128;50.016;20.002;2023-02-28T05:18:59;31.33;;;17.33;;
34920;SDS011;21128;50.016;20.002;2023-02-28T05:21:30;32.25;;;17.60;;
34920;SDS011;21128;50.016;20.002;2023-02-28T05:24:03;39.37;;;18.83;;
34920;SDS011;21128;50.016;20.002;2023-02-28T05:26:39;41.45;;;17.65;;
34920;SDS011;21128;50.016;20.002;2023-02-28T05:29:08;40.93;;;19.47;;
34920;SDS011;21128;50.016;20.002;2023-02-28T05:31:36;33.07;;;17.13;;
34920;SDS011;21128;50.016;20.002;2023-02-28T05:34:03;33.73;;;17.30;;
34920;SDS011;21128;50.016;20.002;2023-02-28T05:36:31;36.00;;;19.20;;
34920;SDS011;21128;50.016;20.002;2023-02-28T05:38:58;33.00;;;18.85;;
34920;SDS011;21128;50.016;20.002;2023-02-28T05:41:26;37.00;;;18.53;;
34920;SDS011;21128;50.016;20.002;2023-02-28T05:43:53;36.90;;;17.57;;
34920;SDS011;21128;50.016;20.002;2023-02-28T05:46:20;33.77;;;18.33;;
34920;SDS011;21128;50.016;20.002;2023-02-28T05:48:47;35.13;;;19.17;;
34920;SDS011;21128;50.016;20.002;2023-02-28T05:51:15;33.40;;;18.53;;
34920;SDS011;21128;50.016;20.002;2023-02-28T05:53:42;34.93;;;17.97;;
34920;SDS011;21128;50.016;20.002;2023-02-28T05:56:09;30.57;;;16.65;;
34920;SDS011;21128;50.016;20.002;2023-02-28T05:58:36;34.20;;;18.73;;
34920;SDS011;21128;50.016;20.002;2023-02-28T06:03:49;37.50;;;19.20;;
34920;SDS011;21128;50.016;20.002;2023-02-28T06:06:17;34.00;;;18.25;;
34920;SDS011;21128;50.016;20.002;2023-02-28T06:08:44;39.18;;;20.30;;
34920;SDS011;21128;50.016;20.002;2023-02-28T06:11:12;35.90;;;20.15;;
34920;SDS011;21128;50.016;20.002;2023-02-28T06:13:39;39.63;;;19.03;;
34920;SDS011;21128;50.016;20.002;2023-02-28T06:16:06;35.07;;;19.73;;
34920;SDS011;21128;50.016;20.002;2023-02-28T06:18:34;38.07;;;21.07;;
34920;SDS011;21128;50.016;20.002;2023-02-28T06:21:01;37.55;;;20.60;;
34920;SDS011;21128;50.016;20.002;2023-02-28T06:23:28;43.90;;;20.87;;
34920;SDS011;21128;50.016;20.002;2023-02-28T06:25:55;37.67;;;21.53;;
34920;SDS011;21128;50.016;20.002;2023-02-28T06:28:25;40.53;;;20.37;;
34920;SDS011;21128;50.016;20.002;2023-02-28T06:30:52;41.53;;;21.37;;
34920;SDS011;21128;50.016;20.002;2023-02-28T06:33:19;39.93;;;21.47;;
34920;SDS011;21128;50.016;20.002;2023-02-28T06:35:47;38.48;;;20.50;;
34920;SDS011;21128;50.016;20.002;2023-02-28T06:38:17;40.83;;;21.80;;
34920;SDS011;21128;50.016;20.002;2023-02-28T06:40:52;37.03;;;20.60;;
34920;SDS011;21128;50.016;20.002;2023-02-28T06:43:20;32.75;;;19.30;;
34920;SDS011;21128;50.016;20.002;2023-02-28T06:45:48;41.63;;;21.60;;
34920;SDS011;21128;50.016;20.002;2023-02-28T06:48:15;45.10;;;20.73;;
34920;SDS011;21128;50.016;20.002;2023-02-28T06:50:42;37.15;;;21.02;;
34920;SDS011;21128;50.016;20.002;2023-02-28T06:53:09;41.63;;;21.73;;
34920;SDS011;21128;50.016;20.002;2023-02-28T06:55:37;38.60;;;21.60;;
34920;SDS011;21128;50.016;20.002;2023-02-28T06:58:05;39.50;;;20.87;;
34920;SDS011;21128;50.016;20.002;2023-02-28T07:00:41;37.77;;;21.73;;
34920;SDS011;21128;50.016;20.002;2023-02-28T07:03:10;40.47;;;22.87;;
34920;SDS011;21128;50.016;20.002;2023-02-28T07:05:38;40.70;;;21.63;;
34920;SDS011;21128;50.016;20.002;2023-02-28T07:08:06;43.70;;;22.60;;
34920;SDS011;21128;50.016;20.002;2023-02-28T07:10:34;40.20;;;21.50;;
34920;SDS011;21128;50.016;20.002;2023-02-28T07:13:03;43.70;;;22.07;;
34920;SDS011;21128;50.016;20.002;2023-02-28T07:15:31;39.63;;;22.17;;
34920;SDS011;21128;50.016;20.002;2023-02-28T07:17:58;43.07;;;22.50;;
34920;SDS011;21128;50.016;20.002;2023-02-28T07:20:25;40.33;;;22.63;;
34920;SDS011;21128;50.016;20.002;2023-02-28T07:22:52;42.07;;;22.33;;
34920;SDS011;21128;50.016;20.002;2023-02-28T07:25:23;52.23;;;23.67;;
34920;SDS011;21128;50.016;20.002;2023-02-28T07:27:52;44.43;;;22.17;;
34920;SDS011;21128;50.016;20.002;2023-02-28T07:30:20;37.77;;;21.03;;
34920;SDS011;21128;50.016;20.002;2023-02-28T07:32:47;40.90;;;21.90;;
34920;SDS011;21128;50.016;20.002;2023-02-28T07:35:14;41.40;;;21.10;;
34920;SDS011;21128;50.016;20.002;2023-02-28T07:37:44;40.95;;;21.90;;
34920;SDS011;21128;50.016;20.002;2023-02-28T07:40:13;36.47;;;22.13;;
34920;SDS011;21128;50.016;20.002;2023-02-28T07:42:41;42.17;;;22.00;;
34920;SDS011;21128;50.016;20.002;2023-02-28T07:45:08;39.60;;;20.23;;
34920;SDS011;21128;50.016;20.002;2023-02-28T07:47:38;42.43;;;21.77;;
34920;SDS011;21128;50.016;20.002;2023-02-28T07:50:06;43.83;;;22.40;;
34920;SDS011;21128;50.016;20.002;2023-02-28T07:52:34;43.47;;;22.03;;
34920;SDS011;21128;50.016;20.002;2023-02-28T07:55:03;35.63;;;19.77;;
34920;SDS011;21128;50.016;20.002;2023-02-28T07:57:31;38.87;;;20.20;;
34920;SDS011;21128;50.016;20.002;2023-02-28T07:59:58;38.67;;;20.83;;
34920;SDS011;21128;50.016;20.002;2023-02-28T08:02:25;36.93;;;20.10;;
34920;SDS011;21128;50.016;20.002;2023-02-28T08:04:52;34.35;;;19.27;;
34920;SDS011;21128;50.016;20.002;2023-02-28T08:07:19;38.80;;;19.93;;
34920;SDS011;21128;50.016;20.002;2023-02-28T08:09:46;35.87;;;18.53;;
34920;SDS011;21128;50.016;20.002;2023-02-28T08:12:13;38.43;;;19.43;;
34920;SDS011;21128;50.016;20.002;2023-02-28T08:14:41;32.27;;;17.77;;
34920;SDS011;21128;50.016;20.002;2023-02-28T08:17:09;33.60;;;18.00;;
34920;SDS011;21128;50.016;20.002;2023-02-28T08:19:37;46.30;;;20.63;;
34920;SDS011;21128;50.016;20.002;2023-02-28T08:22:04;42.43;;;19.83;;
34920;SDS011;21128;50.016;20.002;2023-02-28T08:24:32;38.03;;;18.73;;
34920;SDS011;21128;50.016;20.002;2023-02-28T08:26:59;34.30;;;18.67;;
34920;SDS011;21128;50.016;20.002;2023-02-28T08:29:27;33.48;;;18.57;;
34920;SDS011;21128;50.016;20.002;2023-02-28T08:31:54;35.80;;;18.10;;
34920;SDS011;21128;50.016;20.002;2023-02-28T08:34:21;35.77;;;15.70;;
34920;SDS011;21128;50.016;20.002;2023-02-28T08:36:48;33.13;;;16.20;;
34920;SDS011;21128;50.016;20.002;2023-02-28T08:39:15;31.17;;;15.93;;
34920;SDS011;21128;50.016;20.002;2023-02-28T08:41:42;32.05;;;17.27;;
34920;SDS011;21128;50.016;20.002;2023-02-28T08:44:10;31.03;;;15.03;;
34920;SDS011;21128;50.016;20.002;2023-02-28T08:46:37;27.33;;;15.00;;
34920;SDS011;21128;50.016;20.002;2023-02-28T08:49:05;31.23;;;16.57;;
34920;SDS011;21128;50.016;20.002;2023-02-28T08:51:33;29.70;;;14.95;;
34920;SDS011;21128;50.016;20.002;2023-02-28T08:54:00;23.63;;;12.80;;
34920;SDS011;21128;50.016;20.002;2023-02-28T08:56:28;21.43;;;10.50;;
34920;SDS011;21128;50.016;20.002;2023-02-28T08:58:56;18.62;;;10.25;;
34920;SDS011;21128;50.016;20.002;2023-02-28T09:01:27;15.53;;;9.20;;
34920;SDS011;21128;50.016;20.002;2023-02-28T09:03:55;18.40;;;9.63;;
34920;SDS011;21128;50.016;20.002;2023-02-28T09:06:24;18.13;;;8.00;;
34920;SDS011;21128;50.016;20.002;2023-02-28T09:08:52;12.40;;;8.63;;
34920;SDS011;21128;50.016;20.002;2023-02-28T09:11:20;11.40;;;7.57;;
34920;SDS011;21128;50.016;20.002;2023-02-28T09:13:47;17.50;;;6.97;;
34920;SDS011;21128;50.016;20.002;2023-02-28T09:16:14;13.20;;;6.35;;
34920;SDS011;21128;50.016;20.002;2023-02-28T09:18:43;13.03;;;6.80;;
34920;SDS011;21128;50.016;20.002;2023-02-28T09:21:12;10.95;;;6.20;;
34920;SDS011;21128;50.016;20.002;2023-02-28T09:23:42;10.50;;;6.87;;
34920;SDS011;21128;50.016;20.002;2023-02-28T09:26:28;14.00;;;6.50;;
34920;SDS011;21128;50.016;20.002;2023-02-28T09:28:55;14.57;;;6.93;;
34920;SDS011;21128;50.016;20.002;2023-02-28T09:31:24;10.95;;;6.55;;
34920;SDS011;21128;50.016;20.002;2023-02-28T09:33:55;21.10;;;6.93;;
34920;SDS011;21128;50.016;20.002;2023-02-28T09:36:24;14.75;;;7.30;;
34920;SDS011;21128;50.016;20.002;2023-02-28T09:38:53;12.77;;;7.00;;
34920;SDS011;21128;50.016;20.002;2023-02-28T09:41:21;10.43;;;6.87;;
34920;SDS011;21128;50.016;20.002;2023-02-28T09:43:50;14.60;;;7.00;;
34920;SDS011;21128;50.016;20.002;2023-02-28T09:49:14;14.30;;;7.80;;
34920;SDS011;21128;50.016;20.002;2023-02-28T09:54:28;13.87;;;7.23;;
34920;SDS011;21128;50.016;20.002;2023-02-28T10:05:30;17.07;;;7.93;;
34920;SDS011;21128;50.016;20.002;2023-02-28T10:08:10;17.07;;;7.57;;
34920;SDS011;21128;50.016;20.002;2023-02-28T10:10:44;14.03;;;8.63;;
34920;SDS011;21128;50.016;20.002;2023-02-28T10:13:20;12.47;;;7.77;;
34920;SDS011;21128;50.016;20.002;2023-02-28T10:16:13;17.77;;;9.00;;
34920;SDS011;21128;50.016;20.002;2023-02-28T10:18:46;15.65;;;8.55;;
34920;SDS011;21128;50.016;20.002;2023-02-28T10:21:23;14.17;;;7.90;;
34920;SDS011;21128;50.016;20.002;2023-02-28T10:27:06;11.33;;;6.40;;
34920;SDS011;21128;50.016;20.002;2023-02-28T10:29:38;13.80;;;8.23;;
34920;SDS011;21128;50.016;20.002;2023-02-28T10:32:10;15.00;;;8.50;;
34920;SDS011;21128;50.016;20.002;2023-02-28T10:34:41;14.23;;;8.20;;
34920;SDS011;21128;50.016;20.002;2023-02-28T10:37:08;13.08;;;8.70;;
34920;SDS011;21128;50.016;20.002;2023-02-28T10:39:40;15.63;;;8.23;;
34920;SDS011;21128;50.016;20.002;2023-02-28T10:42:19;15.65;;;8.45;;
34920;SDS011;21128;50.016;20.002;2023-02-28T10:44:48;11.77;;;7.83;;
34920;SDS011;21128;50.016;20.002;2023-02-28T10:47:16;15.35;;;8.60;;
34920;SDS011;21128;50.016;20.002;2023-02-28T10:49:49;16.07;;;9.20;;
34920;SDS011;21128;50.016;20.002;2023-02-28T10:55:22;12.63;;;7.93;;
34920;SDS011;21128;50.016;20.002;2023-02-28T10:57:51;15.97;;;8.13;;
34920;SDS011;21128;50.016;20.002;2023-02-28T11:00:23;17.50;;;9.00;;
34920;SDS011;21128;50.016;20.002;2023-02-28T11:10:58;13.20;;;8.20;;
34920;SDS011;21128;50.016;20.002;2023-02-28T11:13:33;14.07;;;8.67;;
34920;SDS011;21128;50.016;20.002;2023-02-28T11:16:04;11.15;;;8.10;;
34920;SDS011;21128;50.016;20.002;2023-02-28T11:18:37;11.67;;;7.70;;
34920;SDS011;21128;50.016;20.002;2023-02-28T11:21:05;11.63;;;7.70;;
34920;SDS011;21128;50.016;20.002;2023-02-28T11:23:34;14.10;;;7.80;;
34920;SDS011;21128;50.016;20.002;2023-02-28T11:26:07;15.13;;;7.93;;
34920;SDS011;21128;50.016;20.002;2023-02-28T11:28:39;15.83;;;8.67;;
34920;SDS011;21128;50.016;20.002;2023-02-28T11:36:10;12.43;;;7.80;;
34920;SDS011;21128;50.016;20.002;2023-02-28T11:38:41;14.47;;;7.73;;
34920;SDS011;21128;50.016;20.002;2023-02-28T11:52:05;10.47;;;7.10;;
34920;SDS011;21128;50.016;20.002;2023-02-28T11:55:02;11.70;;;6.90;;
34920;SDS011;21128;50.016;20.002;2023-02-28T12:15:13;10.67;;;6.87;;
34920;SDS011;21128;50.016;20.002;2023-02-28T12:20:48;14.00;;;6.57;;
34920;SDS011;21128;50.016;20.002;2023-02-28T12:28:57;12.33;;;6.83;;
34920;SDS011;21128;50.016;20.002;2023-02-28T12:32:07;11.73;;;6.10;;
34920;SDS011;21128;50.016;20.002;2023-02-28T12:34:45;16.10;;;7.77;;
34920;SDS011;21128;50.016;20.002;2023-02-28T12:37:29;11.70;;;7.60;;
34920;SDS011;21128;50.016;20.002;2023-02-28T12:40:03;13.10;;;7.50;;
34920;SDS011;21128;50.016;20.002;2023-02-28T12:42:41;12.13;;;7.70;;
34920;SDS011;21128;50.016;20.002;2023-02-28T12:45:23;13.87;;;8.40;;
34920;SDS011;21128;50.016;20.002;2023-02-28T12:47:55;23.23;;;7.90;;
34920;SDS011;21128;50.016;20.002;2023-02-28T12:50:24;13.43;;;8.53;;
34920;SDS011;21128;50.016;20.002;2023-02-28T12:52:55;12.77;;;8.43;;
34920;SDS011;21128;50.016;20.002;2023-02-28T12:55:48;13.70;;;8.63;;
34920;SDS011;21128;50.016;20.002;2023-02-28T13:09:56;13.97;;;8.10;;
34920;SDS011;21128;50.016;20.002;2023-02-28T13:12:26;14.57;;;8.30;;
34920;SDS011;21128;50.016;20.002;2023-02-28T13:17:38;15.40;;;8.30;;
34920;SDS011;21128;50.016;20.002;2023-02-28T13:20:47;13.65;;;8.20;;
34920;SDS011;21128;50.016;20.002;2023-02-28T13:23:03;13.05;;;7.70;;
34920;SDS011;21128;50.016;20.002;2023-02-28T13:25:51;13.43;;;7.93;;
34920;SDS011;21128;50.016;20.002;2023-02-28T13:31:15;15.03;;;8.30;;
34920;SDS011;21128;50.016;20.002;2023-02-28T13:38:58;20.97;;;9.20;;
34920;SDS011;21128;50.016;20.002;2023-02-28T13:44:09;16.95;;;9.18;;
34920;SDS011;21128;50.016;20.002;2023-02-28T13:49:32;14.17;;;9.00;;
34920;SDS011;21128;50.016;20.002;2023-02-28T13:57:12;18.93;;;8.33;;
34920;SDS011;21128;50.016;20.002;2023-02-28T14:05:17;20.40;;;9.10;;
34920;SDS011;21128;50.016;20.002;2023-02-28T14:07:49;16.15;;;10.10;;
34920;SDS011;21128;50.016;20.002;2023-02-28T14:10:24;16.53;;;11.27;;
34920;SDS011;21128;50.016;20.002;2023-02-28T14:13:02;12.57;;;7.80;;
34920;SDS011;21128;50.016;20.002;2023-02-28T14:15:54;23.95;;;10.00;;
34920;SDS011;21128;50.016;20.002;2023-02-28T14:19:09;18.82;;;8.85;;
34920;SDS011;21128;50.016;20.002;2023-02-28T14:21:38;16.60;;;9.15;;
34920;SDS011;21128;50.016;20.002;2023-02-28T14:24:28;16.80;;;8.40;;
34920;SDS011;21128;50.016;20.002;2023-02-28T14:27:02;16.73;;;8.50;;
34920;SDS011;21128;50.016;20.002;2023-02-28T14:35:53;15.77;;;8.70;;
34920;SDS011;21128;50.016;20.002;2023-02-28T14:37:54;13.55;;;8.70;;
34920;SDS011;21128;50.016;20.002;2023-02-28T14:40:29;17.53;;;8.93;;
34920;SDS011;21128;50.016;20.002;2023-02-28T14:43:00;14.57;;;9.23;;
34920;SDS011;21128;50.016;20.002;2023-02-28T14:45:31;18.37;;;8.13;;
34920;SDS011;21128;50.016;20.002;2023-02-28T14:48:00;16.20;;;8.93;;
34920;SDS011;21128;50.016;20.002;2023-02-28T14:50:30;17.50;;;9.60;;
34920;SDS011;21128;50.016;20.002;2023-02-28T14:53:00;16.10;;;9.23;;
34920;SDS011;21128;50.016;20.002;2023-02-28T14:55:29;15.43;;;9.83;;
34920;SDS011;21128;50.016;20.002;2023-02-28T14:58:00;17.67;;;9.60;;
34920;SDS011;21128;50.016;20.002;2023-02-28T15:00:31;19.93;;;9.20;;
34920;SDS011;21128;50.016;20.002;2023-02-28T15:06:06;13.33;;;8.37;;
34920;SDS011;21128;50.016;20.002;2023-02-28T15:08:40;13.43;;;9.87;;
34920;SDS011;21128;50.016;20.002;2023-02-28T15:11:15;16.40;;;10.07;;
34920;SDS011;21128;50.016;20.002;2023-02-28T15:13:50;21.37;;;10.83;;
34920;SDS011;21128;50.016;20.002;2023-02-28T15:18:53;17.47;;;11.60;;
34920;SDS011;21128;50.016;20.002;2023-02-28T15:21:34;21.70;;;12.45;;
34920;SDS011;21128;50.016;20.002;2023-02-28T15:24:10;19.00;;;11.83;;
34920;SDS011;21128;50.016;20.002;2023-02-28T15:26:51;22.23;;;11.93;;
34920;SDS011;21128;50.016;20.002;2023-02-28T15:29:24;20.65;;;11.55;;
34920;SDS011;21128;50.016;20.002;2023-02-28T15:32:04;24.97;;;11.53;;
34920;SDS011;21128;50.016;20.002;2023-02-28T15:39:51;20.17;;;11.23;;
34920;SDS011;21128;50.016;20.002;2023-02-28T15:42:19;15.10;;;10.37;;
34920;SDS011;21128;50.016;20.002;2023-02-28T15:44:49;17.27;;;10.10;;
34920;SDS011;21128;50.016;20.002;2023-02-28T15:47:18;17.30;;;10.60;;
34920;SDS011;21128;50.016;20.002;2023-02-28T15:52:17;16.80;;;11.75;;
34920;SDS011;21128;50.016;20.002;2023-02-28T15:54:48;19.20;;;11.97;;
34920;SDS011;21128;50.016;20.002;2023-02-28T15:57:20;21.87;;;12.57;;
34920;SDS011;21128;50.016;20.002;2023-02-28T15:59:52;19.27;;;11.77;;
34920;SDS011;21128;50.016;20.002;2023-02-28T16:02:29;19.67;;;11.83;;
34920;SDS011;21128;50.016;20.002;2023-02-28T16:07:35;19.00;;;11.97;;
34920;SDS011;21128;50.016;20.002;2023-02-28T16:10:07;19.37;;;11.93;;
34920;SDS011;21128;50.016;20.002;2023-02-28T16:12:36;26.03;;;12.93;;
34920;SDS011;21128;50.016;20.002;2023-02-28T16:15:09;24.20;;;12.80;;
34920;SDS011;21128;50.016;20.002;2023-02-28T16:17:46;20.70;;;12.37;;
34920;SDS011;21128;50.016;20.002;2023-02-28T16:20:15;21.37;;;12.30;;
34920;SDS011;21128;50.016;20.002;2023-02-28T16:22:47;22.30;;;12.33;;
34920;SDS011;21128;50.016;20.002;2023-02-28T16:25:16;21.83;;;11.53;;
34920;SDS011;21128;50.016;20.002;2023-02-28T16:27:45;21.10;;;11.77;;
34920;SDS011;21128;50.016;20.002;2023-02-28T16:30:24;20.83;;;12.17;;
34920;SDS011;21128;50.016;20.002;2023-02-28T16:32:54;27.05;;;12.20;;
34920;SDS011;21128;50.016;20.002;2023-02-28T16:35:22;26.13;;;11.33;;
34920;SDS011;21128;50.016;20.002;2023-02-28T16:37:50;30.47;;;14.30;;
34920;SDS011;21128;50.016;20.002;2023-02-28T16:40:19;23.73;;;14.27;;
34920;SDS011;21128;50.016;20.002;2023-02-28T16:42:50;25.77;;;13.43;;
34920;SDS011;21128;50.016;20.002;2023-02-28T16:45:23;19.97;;;12.03;;
34920;SDS011;21128;50.016;20.002;2023-02-28T16:47:52;24.60;;;12.47;;
34920;SDS011;21128;50.016;20.002;2023-02-28T16:50:21;26.50;;;13.73;;
34920;SDS011;21128;50.016;20.002;2023-02-28T16:52:53;28.40;;;12.20;;
34920;SDS011;21128;50.016;20.002;2023-02-28T16:55:21;21.63;;;12.23;;
34920;SDS011;21128;50.016;20.002;2023-02-28T16:57:54;31.70;;;13.00;;
34920;SDS011;21128;50.016;20.002;2023-02-28T17:00:25;28.30;;;13.27;;
34920;SDS011;21128;50.016;20.002;2023-02-28T17:02:54;26.70;;;13.00;;
34920;SDS011;21128;50.016;20.002;2023-02-28T17:05:22;26.10;;;12.47;;
34920;SDS011;21128;50.016;20.002;2023-02-28T17:07:50;26.97;;;12.90;;
34920;SDS011;21128;50.016;20.002;2023-02-28T17:10:19;31.77;;;13.53;;
34920;SDS011;21128;50.016;20.002;2023-02-28T17:12:48;26.57;;;12.37;;
34920;SDS011;21128;50.016;20.002;2023-02-28T17:15:17;34.33;;;15.40;;
34920;SDS011;21128;50.016;20.002;2023-02-28T17:17:46;37.27;;;18.67;;
34920;SDS011;21128;50.016;20.002;2023-02-28T17:20:17;41.75;;;15.35;;
34920;SDS011;21128;50.016;20.002;2023-02-28T17:22:53;31.40;;;13.90;;
34920;SDS011;21128;50.016;20.002;2023-02-28T17:25:21;31.27;;;13.90;;
34920;SDS011;21128;50.016;20.002;2023-02-28T17:27:50;27.93;;;13.07;;
34920;SDS011;21128;50.016;20.002;2023-02-28T17:30:19;31.57;;;13.53;;
34920;SDS011;21128;50.016;20.002;2023-02-28T17:32:49;34.83;;;15.30;;
34920;SDS011;21128;50.016;20.002;2023-02-28T17:35:17;40.40;;;17.03;;